createdAt,value
2022-07-29T00:03:39.010Z,961.88
2022-07-29T00:08:40.625Z,961.93
2022-07-29T00:13:41.985Z,961.82
2022-07-29T00:18:43.780Z,961.77
2022-07-29T00:23:45.005Z,961.76
2022-07-29T00:28:47.156Z,961.76
2022-07-29T00:33:48.755Z,961.8
2022-07-29T00:38:50.525Z,961.91
2022-07-29T00:43:52.560Z,961.95
2022-07-29T00:48:53.838Z,961.88
2022-07-29T00:53:55.747Z,961.87
2022-07-29T00:58:57.792Z,961.76
2022-07-29T02:04:29.056Z,961.26
2022-07-29T02:09:21.211Z,961.22
2022-07-29T02:19:24.228Z,961.12
2022-07-29T02:29:27.530Z,960.97
2022-07-29T02:34:29.438Z,960.91
2022-07-29T02:39:31.021Z,960.94
2022-07-29T02:44:34.758Z,960.97
2022-07-29T02:49:34.603Z,961.02
2022-07-29T02:54:36.740Z,960.98
2022-07-29T02:59:38.943Z,960.97
2022-07-29T03:04:40.179Z,960.91
2022-07-29T03:09:41.720Z,960.83
2022-07-29T03:14:43.273Z,960.99
2022-07-29T03:19:44.722Z,960.98
2022-07-29T03:24:45.933Z,961
2022-07-29T03:29:49.796Z,960.95
2022-07-29T03:34:49.321Z,960.93
2022-07-29T03:39:50.930Z,960.98
2022-07-29T03:44:52.413Z,961.06
2022-07-29T03:49:53.722Z,961.03
2022-07-29T03:54:55.551Z,961.02
2022-07-29T03:59:56.946Z,961.09
2022-07-29T04:04:58.550Z,961.04
2022-07-29T04:10:00.547Z,961.09
2022-07-29T04:15:02.271Z,961.12
2022-07-29T04:20:04.152Z,961.14
2022-07-29T04:25:06.082Z,961.21
2022-07-29T04:30:08.182Z,961.23
2022-07-29T04:35:09.617Z,961.25
2022-07-29T04:40:11.268Z,961.27
2022-07-29T04:45:13.513Z,961.31
2022-07-29T04:50:15.023Z,961.36
2022-07-29T04:55:16.922Z,961.33
2022-07-29T05:00:18.580Z,961.35
2022-07-29T05:05:20.368Z,961.41
2022-07-29T05:10:21.745Z,961.44
2022-07-29T05:15:23.983Z,961.42
2022-07-29T05:20:25.298Z,961.39
2022-07-29T05:25:40.656Z,961.44
2022-07-29T05:30:28.985Z,961.46
2022-07-29T05:35:30.390Z,961.46
2022-07-29T05:40:31.598Z,961.43
2022-07-29T05:45:33.606Z,961.51
2022-07-29T05:50:34.934Z,961.58
2022-07-29T05:55:36.291Z,961.63
2022-07-29T06:00:37.631Z,961.61
2022-07-29T06:05:39.388Z,961.67
2022-07-29T06:10:41.432Z,961.71
2022-07-29T06:15:43.218Z,961.69
2022-07-29T06:20:44.783Z,961.72
2022-07-29T06:25:46.731Z,961.67
2022-07-29T06:30:48.705Z,961.7
2022-07-29T06:35:52.440Z,961.69
2022-07-29T06:40:52.180Z,961.66
2022-07-29T06:45:54.268Z,961.66
2022-07-29T06:50:55.969Z,961.68
2022-07-29T06:55:57.931Z,961.71
2022-07-29T07:00:59.970Z,961.76
2022-07-29T07:06:01.750Z,961.77
2022-07-29T07:11:03.109Z,961.79
2022-07-29T07:16:05.261Z,961.87
2022-07-29T07:21:06.994Z,961.87
2022-07-29T07:26:08.327Z,961.81
2022-07-29T07:31:09.591Z,961.78
2022-07-29T07:36:11.660Z,961.78
2022-07-29T07:41:13.240Z,961.75
2022-07-29T07:46:15.328Z,961.75
2022-07-29T07:51:16.989Z,961.71
2022-07-29T07:56:18.227Z,961.76
2022-07-29T08:01:20.488Z,961.78
2022-07-29T08:06:21.647Z,961.68
2022-07-29T08:11:23.793Z,961.71
2022-07-29T08:16:25.781Z,961.73
2022-07-29T08:21:27.368Z,961.76
2022-07-29T08:26:29.153Z,961.74
2022-07-29T08:31:31.308Z,961.74
2022-07-29T08:36:32.999Z,961.7
2022-07-29T08:41:34.127Z,961.73
2022-07-29T08:46:36.046Z,961.77
2022-07-29T08:51:37.158Z,961.78
2022-07-29T08:56:38.659Z,961.74
2022-07-29T09:01:42.598Z,961.78
2022-07-29T09:06:41.632Z,961.87
2022-07-29T09:11:43.193Z,961.88
2022-07-29T09:16:52.947Z,961.81
2022-07-29T09:21:46.946Z,961.84
2022-07-29T09:26:48.460Z,961.83
2022-07-29T09:31:49.887Z,961.76
2022-07-29T09:36:51.883Z,961.83
2022-07-29T09:41:53.954Z,961.81
2022-07-29T09:46:55.780Z,961.79
2022-07-29T09:51:56.808Z,961.74
2022-07-29T09:56:58.531Z,961.73
2022-07-29T10:01:59.737Z,961.74
2022-07-29T10:07:04.543Z,961.73
2022-07-29T10:12:03.301Z,961.73
2022-07-29T10:17:05.394Z,961.74
2022-07-29T10:22:06.891Z,961.71
2022-07-29T10:27:08.455Z,961.69
2022-07-29T10:32:09.815Z,961.76
2022-07-29T10:37:10.996Z,961.72
2022-07-29T10:42:13.014Z,961.7
2022-07-29T10:47:14.637Z,961.7
2022-07-29T10:52:15.817Z,961.68
2022-07-29T10:57:17.900Z,961.59
2022-07-29T11:07:20.609Z,961.55
2022-07-29T11:12:22.626Z,961.58
2022-07-29T11:17:23.840Z,961.57
2022-07-29T11:22:32.048Z,961.57
2022-07-29T11:27:34.193Z,961.51
2022-07-29T11:32:36.117Z,961.47
2022-07-29T11:42:41.878Z,961.43
2022-07-29T11:47:41.071Z,961.4
2022-07-29T11:52:49.425Z,961.4
2022-07-29T11:57:44.705Z,961.28
2022-07-29T12:02:48.393Z,961.32
2022-07-29T12:07:48.742Z,961.31
2022-07-29T12:12:50.831Z,961.3
2022-07-29T12:17:52.885Z,961.25
2022-07-29T12:22:54.992Z,961.2
2022-07-29T12:27:56.433Z,961.22
2022-07-29T12:32:58.252Z,961.18
2022-07-29T12:37:59.618Z,961.19
2022-07-29T12:43:00.867Z,961.13
2022-07-29T12:48:02.748Z,961.07
2022-07-29T12:53:03.995Z,961.09
2022-07-29T12:58:05.575Z,961.06
2022-07-29T13:03:06.780Z,961.02
2022-07-29T13:08:08.020Z,960.95
2022-07-29T13:13:09.919Z,960.98
2022-07-29T13:18:13.734Z,960.97
2022-07-29T13:23:13.342Z,961.01
2022-07-29T13:28:15.252Z,961
2022-07-29T13:33:16.390Z,961.05
2022-07-29T13:38:17.644Z,961.08
2022-07-29T13:43:19.666Z,961.09
2022-07-29T13:48:21.820Z,961.02
2022-07-29T13:53:26.705Z,961.01
2022-07-29T13:58:25.224Z,960.84
2022-07-29T14:03:26.794Z,960.7
2022-07-29T14:08:28.870Z,960.6
2022-07-29T14:13:30.951Z,960.55
2022-07-29T14:18:32.507Z,960.68
2022-07-29T14:23:34.490Z,960.72
2022-07-29T14:28:38.991Z,960.75
2022-07-29T14:33:38.072Z,960.69
2022-07-29T14:38:39.989Z,960.73
2022-07-29T14:43:42.064Z,960.78
2022-07-29T14:48:43.758Z,960.74
2022-07-29T14:53:45.815Z,960.73
2022-07-29T14:58:49.203Z,960.83
2022-07-29T15:03:49.530Z,960.99
2022-07-29T15:08:51.157Z,960.98
2022-07-29T15:13:52.556Z,960.92
2022-07-29T15:18:53.800Z,960.97
2022-07-29T15:23:55.929Z,961.05
2022-07-29T15:28:57.723Z,961.01
2022-07-29T15:44:03.146Z,960.97
2022-07-29T16:14:12.054Z,960.94
2022-07-29T16:24:15.238Z,960.96
2022-07-29T16:29:16.435Z,961.01
2022-07-29T16:54:25.559Z,961.37
2022-07-29T16:59:26.901Z,961.46
2022-07-29T17:09:30.204Z,961.63
2022-07-29T17:14:32.332Z,961.69
2022-07-29T17:19:33.623Z,961.78
2022-07-29T17:24:35.604Z,961.75
2022-07-29T17:29:37.188Z,961.76
2022-07-29T17:34:39.160Z,961.93
2022-07-29T17:39:40.923Z,962.11
2022-07-29T17:44:42.694Z,962.35
2022-07-29T17:49:44.204Z,962.51
2022-07-29T17:54:46.030Z,962.65
2022-07-29T17:59:47.577Z,962.64
2022-07-29T18:04:50.563Z,962.69
2022-07-29T18:09:50.356Z,962.7
2022-07-29T18:14:51.558Z,962.69
2022-07-29T18:19:53.112Z,962.76
2022-07-29T18:24:54.572Z,962.82
2022-07-29T18:29:55.806Z,962.85
2022-07-29T18:34:57.073Z,962.73
2022-07-29T18:39:59.612Z,962.73
2022-07-29T18:45:00.156Z,962.85
2022-07-29T18:50:02.210Z,962.89
2022-07-29T18:55:04.011Z,962.97
2022-07-29T19:00:05.279Z,963.02
2022-07-29T19:05:07.255Z,963.07
2022-07-29T19:10:08.837Z,963.12
2022-07-29T19:15:10.817Z,963.21
2022-07-29T19:20:12.455Z,963.19
2022-07-29T19:25:14.155Z,963.23
2022-07-29T19:30:15.905Z,963.31
2022-07-29T19:35:17.965Z,963.33
2022-07-29T19:40:19.655Z,963.4
2022-07-29T19:45:21.466Z,963.45
2022-07-29T19:50:23.226Z,963.49
2022-07-29T19:55:25.003Z,963.52
2022-07-29T20:00:26.696Z,963.51
2022-07-29T20:05:28.375Z,963.56
2022-07-29T20:10:30.229Z,963.55
2022-07-29T20:15:32.217Z,963.6
2022-07-29T20:20:33.780Z,963.6
2022-07-29T20:25:35.020Z,963.58
2022-07-29T20:30:38.375Z,963.58
2022-07-29T20:35:38.753Z,963.59
2022-07-29T20:40:40.715Z,963.54
2022-07-29T20:45:42.663Z,963.55
2022-07-29T20:50:44.579Z,963.58
2022-07-29T20:55:46.187Z,963.53
2022-07-29T21:00:48.259Z,963.52
2022-07-29T21:05:50.072Z,963.52
2022-07-29T21:10:51.248Z,963.48
2022-07-29T21:15:52.565Z,963.56
2022-07-29T21:20:54.315Z,963.53
2022-07-29T21:25:56.215Z,963.5
2022-07-29T21:30:57.698Z,963.51
2022-07-29T21:36:15.315Z,963.53
2022-07-29T21:41:00.683Z,963.55
2022-07-29T21:46:01.956Z,963.55
2022-07-29T21:51:04.192Z,963.58
2022-07-29T21:56:06.019Z,963.6
2022-07-29T22:16:11.847Z,963.59
2022-07-29T22:21:13.978Z,963.62
2022-07-29T22:26:15.345Z,963.69
2022-07-29T22:31:16.788Z,963.63
2022-07-29T22:36:18.118Z,963.6
2022-07-29T22:41:20.101Z,963.59
2022-07-29T22:46:22.213Z,963.54
2022-07-29T22:51:23.492Z,963.51
2022-07-29T22:56:24.880Z,963.42
2022-07-29T23:01:36.107Z,963.35
2022-07-29T23:06:27.589Z,963.31
2022-07-29T23:11:29.547Z,963.16
2022-07-29T23:16:31.189Z,963.09
2022-07-29T23:21:32.768Z,963.04
2022-07-29T23:26:34.809Z,963.01
2022-07-29T23:31:41.774Z,963.05
2022-07-29T23:36:38.405Z,963.01
2022-07-29T23:41:39.881Z,963.03
2022-07-29T23:46:41.200Z,962.95
2022-07-29T23:51:42.497Z,962.85
2022-07-29T23:56:44.244Z,962.88
